Time;durP1;ratioP1;P1;durP2;ratioP2;P2;SDS_P1;SDS_P2;PMS_P1;PMS_P2;Temp;Humidity;BMP_temperature;BMP_pressure;BME280_temperature;BME280_humidity;BME280_pressure;Samples;Min_cycle;Max_cycle;Signal;HPM_P1;HPM_P2
2024/03/13 00:00:04;;;;;;;71.13;34.00;;;6.60;99.90;;;;;;5080154;28;20532;-83
2024/03/13 00:02:34;;;;;;;74.05;34.65;;;6.60;99.90;;;;;;5079435;28;20045;-83
2024/03/13 00:05:00;;;;;;;;;;;6.60;99.90;;;;;;5079448;28;20075;-83
2024/03/13 00:07:26;;;;;;;70.35;32.17;;;6.60;99.90;;;;;;5074258;28;20238;-83
2024/03/13 00:09:53;;;;;;;72.63;32.78;;;6.60;99.90;;;;;;5070354;28;20367;-83
2024/03/13 00:12:19;;;;;;;75.32;33.38;;;6.60;99.90;;;;;;5067697;28;20029;-83
2024/03/13 00:14:53;;;;;;;69.97;32.28;;;6.60;99.90;;;;;;5073946;28;20062;-83
2024/03/13 00:17:21;;;;;;;64.10;30.33;;;6.60;99.90;;;;;;5074427;28;20493;-83
2024/03/13 00:19:48;;;;;;;72.93;33.80;;;6.50;99.90;;;;;;5072963;28;20025;-82
2024/03/13 00:22:18;;;;;;;69.35;33.03;;;6.40;99.90;;;;;;5072305;28;20540;-83
2024/03/13 00:24:45;;;;;;;66.88;30.40;;;6.40;99.90;;;;;;5073055;28;20067;-83
2024/03/13 00:27:12;;;;;;;71.18;31.75;;;6.40;99.90;;;;;;5071859;28;20527;-83
2024/03/13 00:29:38;;;;;;;68.82;31.42;;;6.40;99.90;;;;;;5087534;28;20111;-83
2024/03/13 00:32:04;;;;;;;68.80;32.17;;;6.40;99.90;;;;;;5092308;28;20047;-82
2024/03/13 00:34:30;;;;;;;63.53;30.17;;;6.40;99.90;;;;;;5093477;28;20111;-82
2024/03/13 00:36:56;;;;;;;64.95;30.40;;;6.40;99.90;;;;;;5093624;28;20108;-82
2024/03/13 00:39:22;;;;;;;73.30;33.53;;;6.30;99.90;;;;;;5085236;28;20417;-82
2024/03/13 00:41:48;;;;;;;68.82;32.13;;;6.30;99.90;;;;;;5072350;28;20517;-82
2024/03/13 00:44:14;;;;;;;60.80;30.38;;;6.30;99.90;;;;;;5072341;28;20059;-82
2024/03/13 00:46:40;;;;;;;66.22;31.73;;;6.20;99.90;;;;;;5076582;28;20029;-82
2024/03/13 00:49:07;;;;;;;75.15;32.83;;;6.20;99.90;;;;;;5073037;28;20020;-82
2024/03/13 00:51:33;;;;;;;60.20;29.77;;;6.20;99.90;;;;;;5071132;28;20047;-82
2024/03/13 00:54:04;;;;;;;61.63;29.65;;;6.10;99.90;;;;;;5070593;28;20569;-82
2024/03/13 00:56:31;;;;;;;66.30;32.00;;;6.10;99.90;;;;;;5071116;28;20386;-82
2024/03/13 00:58:57;;;;;;;72.53;32.50;;;6.10;99.90;;;;;;5072393;28;20405;-83
2024/03/13 01:01:23;;;;;;;69.90;35.03;;;6.00;99.90;;;;;;5070560;28;20028;-83
2024/03/13 01:03:49;;;;;;;61.38;28.92;;;5.80;99.90;;;;;;5071141;28;20020;-82
2024/03/13 01:06:17;;;;;;;72.85;32.03;;;5.80;99.90;;;;;;5072348;28;20147;-82
2024/03/13 01:08:44;;;;;;;66.95;30.85;;;5.80;99.90;;;;;;5070930;28;20073;-83
2024/03/13 01:11:10;;;;;;;67.97;31.10;;;5.80;99.90;;;;;;5070023;28;20484;-82
2024/03/13 01:13:36;;;;;;;77.88;34.28;;;5.70;99.90;;;;;;5072130;28;20150;-83
2024/03/13 01:16:01;;;;;;;74.13;32.22;;;5.70;99.90;;;;;;5070785;28;20058;-82
2024/03/13 01:18:27;;;;;;;72.28;33.60;;;5.70;99.90;;;;;;5071990;28;20035;-83
2024/03/13 01:20:53;;;;;;;77.75;32.75;;;5.80;99.90;;;;;;5070248;28;20024;-82
2024/03/13 01:23:20;;;;;;;77.05;33.67;;;5.80;99.90;;;;;;5070586;28;20020;-83
2024/03/13 01:25:47;;;;;;;75.38;32.45;;;5.80;99.90;;;;;;5070204;28;20024;-82
2024/03/13 01:28:13;;;;;;;77.45;33.65;;;5.80;99.90;;;;;;5070325;28;20021;-83
2024/03/13 01:30:39;;;;;;;69.07;31.40;;;5.90;99.90;;;;;;5069468;28;20043;-83
2024/03/13 01:33:05;;;;;;;64.47;30.38;;;6.00;99.90;;;;;;5070549;28;20107;-83
2024/03/13 01:35:31;;;;;;;62.85;29.95;;;6.00;99.90;;;;;;5072806;28;20020;-83
2024/03/13 01:38:01;;;;;;;59.50;29.05;;;6.00;99.90;;;;;;5072051;28;20025;-83
2024/03/13 01:54:50;;;;;;;70.40;31.40;;;6.00;99.90;;;;;;5071171;28;20024;-82
2024/03/13 01:57:14;;;;;;;69.72;30.10;;;5.90;99.90;;;;;;5051427;28;20109;-82
2024/03/13 02:02:21;;;;;;;66.75;30.85;;;5.90;99.90;;;;;;5051170;28;20490;-82
2024/03/13 02:02:35;;;;;;;60.88;29.75;;;5.80;99.90;;;;;;5051243;28;20025;-82
2024/03/13 02:05:02;;;;;;;61.42;30.67;;;5.80;99.90;;;;;;5068181;28;20397;-83
2024/03/13 02:07:28;;;;;;;68.68;31.55;;;5.70;99.90;;;;;;5069709;28;20025;-82
2024/03/13 02:09:55;;;;;;;65.28;31.10;;;5.60;99.90;;;;;;5065020;28;20025;-82
2024/03/13 02:12:20;;;;;;;70.40;32.30;;;5.50;99.90;;;;;;5069194;28;20032;-83
2024/03/13 02:14:46;;;;;;;66.22;30.33;;;5.50;99.90;;;;;;5069040;28;20016;-83
2024/03/13 02:17:12;;;;;;;66.65;30.55;;;5.50;99.90;;;;;;5071252;28;20028;-82
2024/03/13 02:19:39;;;;;;;68.75;31.38;;;5.50;99.90;;;;;;5071031;28;20062;-82
2024/03/13 02:22:06;;;;;;;63.40;28.83;;;5.40;99.90;;;;;;5069563;28;20434;-82
2024/03/13 02:24:35;;;;;;;64.00;29.85;;;5.40;99.90;;;;;;5065874;28;20029;-83
2024/03/13 02:27:09;;;;;;;72.25;32.20;;;5.40;99.90;;;;;;5057479;28;20543;-82
2024/03/13 02:29:34;;;;;;;69.43;29.63;;;5.40;99.90;;;;;;5051424;28;20032;-82
2024/03/13 02:32:00;;;;;;;60.70;28.65;;;5.40;99.90;;;;;;5048954;28;20497;-82
2024/03/13 02:34:26;;;;;;;58.42;30.35;;;5.40;99.90;;;;;;5050054;28;20098;-82
2024/03/13 02:36:54;;;;;;;58.22;27.90;;;5.40;99.90;;;;;;5052787;28;20028;-82
2024/03/13 02:39:20;;;;;;;60.97;29.05;;;5.30;99.90;;;;;;5070514;28;20033;-82
2024/03/13 02:41:46;;;;;;;64.97;30.63;;;5.30;99.90;;;;;;5070382;28;20028;-82
2024/03/13 02:44:12;;;;;;;65.05;29.55;;;5.30;99.90;;;;;;5069091;28;20452;-82
2024/03/13 02:46:37;;;;;;;62.03;29.13;;;5.20;99.90;;;;;;5069391;28;20032;-82
2024/03/13 02:49:03;;;;;;;62.72;28.10;;;5.10;99.90;;;;;;5050022;28;20075;-82
2024/03/13 02:51:30;;;;;;;72.25;31.98;;;5.00;99.90;;;;;;5050225;28;20032;-82
2024/03/13 02:53:55;;;;;;;70.28;32.22;;;4.90;99.90;;;;;;5050725;28;20386;-82
2024/03/13 02:56:21;;;;;;;70.85;31.27;;;4.80;99.90;;;;;;5050377;28;20017;-82
2024/03/13 02:58:48;;;;;;;69.63;31.63;;;4.70;99.90;;;;;;5057517;28;20034;-82
2024/03/13 03:01:14;;;;;;;63.05;26.75;;;4.60;99.90;;;;;;5048750;28;20040;-82
2024/03/13 03:03:40;;;;;;;69.72;29.73;;;4.60;99.90;;;;;;5049128;28;20029;-82
2024/03/13 03:06:06;;;;;;;66.13;32.33;;;4.50;99.90;;;;;;5050508;28;20025;-82
2024/03/13 03:08:33;;;;;;;69.05;30.40;;;4.50;99.90;;;;;;5056410;28;20028;-82
2024/03/13 03:11:03;;;;;;;68.30;29.17;;;4.40;99.90;;;;;;5056829;28;20029;-82
2024/03/13 03:13:33;;;;;;;76.88;32.13;;;4.40;99.90;;;;;;5051392;28;20017;-82
2024/03/13 03:16:01;;;;;;;68.32;29.55;;;4.40;99.90;;;;;;5049618;28;20025;-82
2024/03/13 03:18:27;;;;;;;69.38;30.90;;;4.30;99.90;;;;;;5059473;28;20024;-82
2024/03/13 03:20:53;;;;;;;68.88;31.40;;;4.20;99.90;;;;;;5052691;28;20401;-82
2024/03/13 03:23:22;;;;;;;67.60;29.42;;;4.20;99.90;;;;;;5054078;28;20427;-82
2024/03/13 03:25:48;;;;;;;68.30;28.95;;;4.20;99.90;;;;;;5053128;28;20436;-82
2024/03/13 03:28:14;;;;;;;73.45;30.63;;;4.10;99.90;;;;;;5056848;28;20032;-82
2024/03/13 03:30:46;;;;;;;65.45;29.85;;;4.10;99.90;;;;;;5054836;28;20520;-82
2024/03/13 03:33:15;;;;;;;67.88;30.33;;;4.00;99.90;;;;;;5054026;28;20381;-82
2024/03/13 03:35:41;;;;;;;68.90;29.35;;;4.00;99.90;;;;;;5053035;28;20098;-83
2024/03/13 03:38:07;;;;;;;69.65;29.40;;;4.00;99.90;;;;;;5052860;28;20021;-82
2024/03/13 03:40:33;;;;;;;64.80;28.95;;;3.90;99.90;;;;;;5053832;28;20032;-82
2024/03/13 03:43:01;;;;;;;60.95;28.05;;;3.90;99.90;;;;;;5053064;28;20024;-82
2024/03/13 03:45:28;;;;;;;68.43;29.10;;;3.90;99.90;;;;;;5052491;28;20025;-82
2024/03/13 03:47:54;;;;;;;64.38;29.10;;;4.00;99.90;;;;;;5052727;28;20032;-82
2024/03/13 03:50:20;;;;;;;69.93;29.50;;;4.00;99.90;;;;;;5063904;28;20033;-82
2024/03/13 03:52:47;;;;;;;75.90;30.20;;;4.10;99.90;;;;;;5072706;28;20096;-82
2024/03/13 03:55:14;;;;;;;79.95;30.98;;;4.10;99.90;;;;;;5073883;28;20489;-82
2024/03/13 03:57:40;;;;;;;69.45;29.40;;;4.10;99.90;;;;;;5073653;28;20024;-82
2024/03/13 04:00:09;;;;;;;62.03;27.73;;;4.10;99.90;;;;;;5072518;28;20116;-82
2024/03/13 04:02:35;;;;;;;65.05;28.73;;;4.20;99.90;;;;;;5052945;28;20032;-82
2024/03/13 04:05:02;;;;;;;67.13;29.10;;;4.20;99.90;;;;;;5053273;28;20025;-82
2024/03/13 04:07:28;;;;;;;68.22;29.25;;;4.30;99.90;;;;;;5051762;28;20025;-83
2024/03/13 04:09:54;;;;;;;69.32;29.00;;;4.30;99.90;;;;;;5053080;28;20452;-82
2024/03/13 04:12:20;;;;;;;63.08;27.63;;;4.40;99.90;;;;;;5071954;28;20377;-87
2024/03/13 04:14:46;;;;;;;64.82;28.80;;;4.50;99.90;;;;;;5073329;28;20017;-88
2024/03/13 04:17:12;;;;;;;70.43;26.88;;;4.50;99.90;;;;;;5072853;28;20154;-87
2024/03/13 04:19:39;;;;;;;63.10;27.85;;;4.60;99.90;;;;;;5073215;28;20025;-87
2024/03/13 04:22:07;;;;;;;65.13;27.70;;;4.60;99.90;;;;;;5057270;28;20068;-87
2024/03/13 04:24:32;;;;;;;60.42;27.90;;;4.60;99.90;;;;;;5053301;28;20482;-87
2024/03/13 04:26:58;;;;;;;65.85;28.38;;;4.70;99.90;;;;;;5053870;28;20071;-87
2024/03/13 04:29:24;;;;;;;60.70;26.77;;;4.60;99.90;;;;;;5052526;28;20024;-87
2024/03/13 04:31:50;;;;;;;51.38;25.50;;;4.70;99.90;;;;;;5062539;28;20120;-87
2024/03/13 04:34:16;;;;;;;59.90;27.85;;;4.70;99.90;;;;;;5073388;28;20501;-87
2024/03/13 04:36:41;;;;;;;57.83;26.77;;;4.70;99.90;;;;;;5058180;28;20021;-86
2024/03/13 04:39:07;;;;;;;58.05;25.92;;;4.70;99.90;;;;;;5053530;28;20055;-88
2024/03/13 04:41:39;;;;;;;61.85;28.38;;;4.80;99.90;;;;;;5063183;28;20095;-88
2024/03/13 04:44:05;;;;;;;65.85;28.98;;;4.70;99.90;;;;;;5072923;28;20110;-87
2024/03/13 04:46:30;;;;;;;59.28;26.77;;;4.80;99.90;;;;;;5072130;28;20028;-87
2024/03/13 04:48:56;;;;;;;58.85;26.92;;;4.80;99.90;;;;;;5072259;28;20163;-87
2024/03/13 04:51:22;;;;;;;59.20;28.15;;;4.70;99.90;;;;;;5066360;28;20394;-87
2024/03/13 04:53:48;;;;;;;65.53;27.08;;;4.70;99.90;;;;;;5052379;28;20367;-87
2024/03/13 04:56:14;;;;;;;57.08;27.08;;;4.70;99.90;;;;;;5052694;28;20050;-87
2024/03/13 04:58:39;;;;;;;63.65;26.90;;;4.60;99.90;;;;;;5052857;28;20032;-87
2024/03/13 05:01:05;;;;;;;62.58;28.38;;;4.60;99.90;;;;;;5052922;28;20029;-87
2024/03/13 05:03:31;;;;;;;65.40;28.95;;;4.70;99.90;;;;;;5059858;28;20021;-87
2024/03/13 05:05:57;;;;;;;62.05;26.42;;;4.70;99.90;;;;;;5052469;28;20032;-87
2024/03/13 05:08:22;;;;;;;58.00;26.80;;;4.70;99.90;;;;;;5052195;28;20033;-87
2024/03/13 05:10:48;;;;;;;66.53;28.85;;;4.70;99.90;;;;;;5051850;28;20432;-87
2024/03/13 05:13:15;;;;;;;69.03;30.05;;;4.80;99.90;;;;;;5066681;28;20385;-87
2024/03/13 05:15:41;;;;;;;69.82;30.33;;;4.70;99.90;;;;;;5072216;28;20025;-87
2024/03/13 05:18:07;;;;;;;71.82;29.63;;;4.70;99.90;;;;;;5066188;28;20033;-87
2024/03/13 05:20:33;;;;;;;70.57;30.38;;;4.70;99.90;;;;;;5051374;28;20033;-87
2024/03/13 05:23:01;;;;;;;66.30;29.80;;;4.80;99.90;;;;;;5060492;28;20477;-87
2024/03/13 05:25:27;;;;;;;66.18;27.77;;;4.80;99.90;;;;;;5059012;28;20072;-87
2024/03/13 05:27:53;;;;;;;72.20;31.02;;;4.90;99.90;;;;;;5051718;28;20033;-87
2024/03/13 05:30:18;;;;;;;60.95;27.55;;;4.90;99.90;;;;;;5051561;28;20052;-87
2024/03/13 05:32:44;;;;;;;71.35;28.48;;;4.90;99.90;;;;;;5051921;28;20021;-87
2024/03/13 05:35:12;;;;;;;72.18;30.30;;;4.90;99.90;;;;;;5052298;28;20024;-87
2024/03/13 05:37:39;;;;;;;68.32;29.95;;;4.90;99.90;;;;;;5071563;28;20020;-87
2024/03/13 05:40:12;;;;;;;73.35;30.10;;;4.90;99.90;;;;;;5070981;28;20505;-87
2024/03/13 05:42:39;;;;;;;67.57;29.35;;;4.90;99.90;;;;;;5071355;28;20271;-87
2024/03/13 05:45:07;;;;;;;62.90;30.40;;;4.90;99.90;;;;;;5069922;28;20131;-88
2024/03/13 05:47:32;;;;;;;67.13;28.73;;;4.90;99.90;;;;;;5071283;28;20038;-87
2024/03/13 05:49:58;;;;;;;72.30;30.48;;;5.00;99.90;;;;;;5070427;28;20111;-87
2024/03/13 05:52:24;;;;;;;68.20;30.85;;;5.00;99.90;;;;;;5071192;28;20029;-88
2024/03/13 05:54:49;;;;;;;67.88;28.60;;;4.90;99.90;;;;;;5071486;28;20078;-88
2024/03/13 05:57:15;;;;;;;69.10;28.65;;;5.00;99.90;;;;;;5058376;28;20083;-87
2024/03/13 05:59:41;;;;;;;72.90;29.88;;;5.00;99.90;;;;;;5050944;28;20464;-87
2024/03/13 06:02:06;;;;;;;63.13;28.65;;;5.00;99.90;;;;;;5059901;28;20501;-88
2024/03/13 06:04:33;;;;;;;67.50;29.15;;;5.00;99.90;;;;;;5070779;28;20035;-87
2024/03/13 06:06:59;;;;;;;57.20;27.30;;;5.00;99.90;;;;;;5070211;28;20036;-88
2024/03/13 06:09:25;;;;;;;65.78;29.52;;;5.10;99.90;;;;;;5058234;28;20131;-88
2024/03/13 06:11:52;;;;;;;55.88;26.33;;;5.10;99.90;;;;;;5068329;28;20050;-88
2024/03/13 06:14:18;;;;;;;66.15;28.95;;;5.10;99.90;;;;;;5062227;28;20474;-89
2024/03/13 06:16:43;;;;;;;63.60;27.67;;;5.10;99.90;;;;;;5071739;28;20031;-83
2024/03/13 06:19:10;;;;;;;62.25;29.83;;;5.20;99.90;;;;;;5085422;28;20052;-83
2024/03/13 06:21:36;;;;;;;63.40;28.15;;;5.20;99.90;;;;;;5089652;28;20024;-83
2024/03/13 06:24:05;;;;;;;61.00;29.52;;;5.20;99.90;;;;;;5068625;28;20120;-84
2024/03/13 06:26:31;;;;;;;55.08;27.05;;;5.20;99.90;;;;;;5069386;28;20025;-83
2024/03/13 06:31:49;;;;;;;56.45;28.02;;;5.20;99.90;;;;;;5034236;28;20088;-84
2024/03/13 06:34:17;;;;;;;57.53;28.27;;;5.20;99.90;;;;;;5050540;28;20120;-84
2024/03/13 06:36:42;;;;;;;57.03;27.30;;;5.20;99.90;;;;;;5050993;28;20013;-84
2024/03/13 06:39:09;;;;;;;64.68;28.67;;;5.10;99.90;;;;;;5056069;28;20040;-83
2024/03/13 06:41:35;;;;;;;59.50;27.75;;;5.20;99.90;;;;;;5068946;28;20477;-83
2024/03/13 06:44:02;;;;;;;58.70;28.27;;;5.20;99.90;;;;;;5063530;28;20033;-83
2024/03/13 06:46:28;;;;;;;56.80;27.50;;;5.20;99.90;;;;;;5050092;28;20021;-84
2024/03/13 06:48:57;;;;;;;61.50;28.40;;;5.20;99.90;;;;;;5048983;28;20371;-83
2024/03/13 06:51:23;;;;;;;61.78;28.67;;;5.30;99.90;;;;;;5051232;28;20036;-83
2024/03/13 06:53:48;;;;;;;58.97;26.63;;;5.30;99.90;;;;;;5060726;28;20458;-83
2024/03/13 06:56:14;;;;;;;58.22;26.92;;;5.30;99.90;;;;;;5069537;28;20051;-83
2024/03/13 06:58:40;;;;;;;55.25;27.33;;;5.40;99.90;;;;;;5083039;28;20059;-83
2024/03/13 07:01:11;;;;;;;55.03;26.13;;;5.50;99.90;;;;;;5068068;28;20078;-84
2024/03/13 07:03:36;;;;;;;59.40;26.92;;;5.50;99.90;;;;;;5053411;28;20025;-89
2024/03/13 07:06:03;;;;;;;59.00;28.63;;;5.60;99.90;;;;;;5059949;28;20083;-89
2024/03/13 07:08:31;;;;;;;56.55;27.05;;;5.60;99.90;;;;;;5057952;28;20529;-84
2024/03/13 07:10:58;;;;;;;61.58;26.90;;;5.70;99.90;;;;;;5082689;28;20497;-87
2024/03/13 07:13:24;;;;;;;60.83;28.02;;;5.70;99.90;;;;;;5070557;28;20028;-88
2024/03/13 07:15:50;;;;;;;55.20;26.27;;;5.70;99.90;;;;;;5085555;28;20076;-83
2024/03/13 07:18:15;;;;;;;57.80;27.02;;;5.80;99.90;;;;;;5058736;28;20543;-83
2024/03/13 07:20:41;;;;;;;58.00;27.30;;;5.90;99.90;;;;;;5068819;28;20063;-83
2024/03/13 07:23:08;;;;;;;58.40;28.13;;;6.00;99.90;;;;;;5068595;28;20132;-83
2024/03/13 07:25:34;;;;;;;63.28;28.25;;;6.00;99.90;;;;;;5069195;28;20036;-83
2024/03/13 07:28:00;;;;;;;61.40;29.40;;;6.10;99.90;;;;;;5064047;28;20029;-83
2024/03/13 07:30:27;;;;;;;51.30;24.77;;;6.20;99.90;;;;;;5049166;28;20535;-83
2024/03/13 07:32:53;;;;;;;53.40;26.35;;;6.20;99.90;;;;;;5068134;28;20039;-83
2024/03/13 07:35:18;;;;;;;54.42;25.52;;;6.30;99.90;;;;;;5067523;28;20024;-83
2024/03/13 07:37:44;;;;;;;51.95;25.58;;;6.40;99.90;;;;;;5062144;28;20032;-83
2024/03/13 07:40:10;;;;;;;44.70;22.40;;;6.50;99.90;;;;;;5051263;28;20025;-83
2024/03/13 07:42:41;;;;;;;48.33;24.77;;;6.60;99.90;;;;;;5067057;28;20020;-83
2024/03/13 07:45:20;;;;;;;48.90;23.75;;;6.70;99.90;;;;;;5069250;28;20032;-89
2024/03/13 07:47:45;;;;;;;44.20;22.70;;;6.80;99.90;;;;;;5070418;28;20021;-89
2024/03/13 07:50:23;;;;;;;49.95;24.88;;;6.90;99.90;;;;;;5069648;28;20035;-83
2024/03/13 07:53:02;;;;;;;45.25;22.70;;;7.00;99.90;;;;;;5070399;28;20094;-89
2024/03/13 07:55:28;;;;;;;63.10;24.63;;;7.20;99.90;;;;;;5070724;28;20097;-87
2024/03/13 07:57:54;;;;;;;66.90;24.23;;;7.40;99.90;;;;;;5069248;28;20104;-85
2024/03/13 08:00:27;;;;;;;54.22;22.45;;;7.50;99.90;;;;;;5068507;28;20477;-86
2024/03/13 08:02:57;;;;;;;51.50;22.10;;;7.60;99.90;;;;;;5058448;28;20084;-87
2024/03/13 08:05:42;;;;;;;57.47;22.88;;;7.70;99.90;;;;;;5054728;28;20469;-86
2024/03/13 08:08:08;;;;;;;49.30;22.50;;;7.80;99.90;;;;;;5054180;28;20474;-84
2024/03/13 08:10:42;;;;;;;44.95;23.65;;;8.00;99.90;;;;;;5089302;28;20154;-86
2024/03/13 08:13:16;;;;;;;40.17;20.80;;;8.10;99.90;;;;;;5092834;28;20024;-82
2024/03/13 08:15:47;;;;;;;34.40;19.20;;;8.10;99.90;;;;;;5093493;28;20381;-83
2024/03/13 08:18:20;;;;;;;39.00;20.33;;;8.30;99.90;;;;;;5078804;28;20029;-88
2024/03/13 08:20:48;;;;;;;39.95;20.83;;;8.30;99.90;;;;;;5072703;28;20115;-80
2024/03/13 08:23:14;;;;;;;37.30;18.98;;;8.50;99.90;;;;;;5072286;28;20103;-84
2024/03/13 08:25:39;;;;;;;37.78;20.92;;;8.50;99.90;;;;;;5070107;28;20056;-83
2024/03/13 08:28:07;;;;;;;38.35;20.63;;;8.70;99.90;;;;;;5066339;28;20024;-87
2024/03/13 08:30:48;;;;;;;35.03;19.88;;;8.80;99.90;;;;;;5074716;28;20111;-89
2024/03/13 08:33:16;;;;;;;36.83;20.58;;;8.90;99.90;;;;;;5064368;28;20082;-83
2024/03/13 08:35:42;;;;;;;33.30;19.35;;;9.00;99.90;;;;;;5052490;28;20044;-83
2024/03/13 08:38:08;;;;;;;32.88;19.25;;;9.10;99.90;;;;;;5052506;28;20025;-82
2024/03/13 08:40:34;;;;;;;36.95;19.88;;;9.20;99.90;;;;;;5053266;28;20033;-89
2024/03/13 08:43:00;;;;;;;37.47;19.30;;;9.30;99.90;;;;;;5061930;28;20032;-89
2024/03/13 08:45:26;;;;;;;33.13;18.33;;;9.50;99.90;;;;;;5064039;28;20025;-89
2024/03/13 08:47:55;;;;;;;29.98;17.65;;;10.10;99.90;;;;;;5090003;28;20095;-82
2024/03/13 08:50:21;;;;;;;28.10;18.50;;;11.60;99.90;;;;;;5073629;28;20111;-82
2024/03/13 08:52:47;;;;;;;26.95;18.05;;;13.30;99.90;;;;;;5054446;28;20104;-83
2024/03/13 08:55:17;;;;;;;23.42;15.35;;;14.70;99.90;;;;;;5063360;28;20025;-83
2024/03/13 08:57:46;;;;;;;22.48;16.70;;;15.80;99.20;;;;;;5072988;28;20135;-91
2024/03/13 09:00:12;;;;;;;24.83;16.70;;;17.30;93.30;;;;;;5054421;28;20033;-90
2024/03/13 09:02:38;;;;;;;22.08;15.93;;;17.40;91.30;;;;;;5053425;28;20410;-91
2024/03/13 09:05:03;;;;;;;21.90;14.30;;;17.70;91.30;;;;;;5061738;28;20024;-89
2024/03/13 09:07:31;;;;;;;16.27;12.55;;;19.10;89.20;;;;;;5073487;28;20473;-89
2024/03/13 09:09:56;;;;;;;13.52;11.35;;;19.90;84.70;;;;;;5072242;28;20502;-90
2024/03/13 09:12:22;;;;;;;15.18;10.80;;;20.40;83.40;;;;;;5074613;28;20047;-90
2024/03/13 09:14:49;;;;;;;13.05;9.65;;;20.70;77.10;;;;;;5073063;28;20338;-90
2024/03/13 09:17:14;;;;;;;9.02;7.35;;;20.30;79.10;;;;;;5074454;28;20029;-90
2024/03/13 09:19:41;;;;;;;11.73;8.52;;;21.20;76.40;;;;;;5059063;28;20394;-89
2024/03/13 09:22:28;;;;;;;10.15;7.32;;;22.30;73.50;;;;;;5055437;28;20454;-92
2024/03/13 09:24:57;;;;;;;8.20;6.63;;;22.50;70.50;;;;;;5055719;28;20029;-90
2024/03/13 09:27:23;;;;;;;8.07;6.50;;;22.50;70.90;;;;;;5054062;28;20029;-90
2024/03/13 09:30:12;;;;;;;9.77;6.15;;;23.20;68.50;;;;;;5054041;28;20367;-90
2024/03/13 09:32:38;;;;;;;8.63;7.50;;;22.70;69.20;;;;;;5052303;28;20040;-90
2024/03/13 09:35:40;;;;;;;10.93;7.47;;;21.70;69.30;;;;;;5053694;28;20025;-90
2024/03/13 09:38:06;;;;;;;10.93;8.23;;;21.80;68.80;;;;;;5051314;28;20059;-90
2024/03/13 09:40:32;;;;;;;10.10;7.55;;;20.60;70.90;;;;;;5051024;28;20025;-89
2024/03/13 09:43:01;;;;;;;9.80;7.82;;;20.80;71.10;;;;;;5053502;28;20029;-90
2024/03/13 09:45:26;;;;;;;8.38;6.93;;;21.10;69.10;;;;;;5071689;28;20440;-90
2024/03/13 09:47:53;;;;;;;11.15;9.10;;;21.10;70.00;;;;;;5071148;28;20020;-90
2024/03/13 09:50:20;;;;;;;11.88;9.35;;;21.40;68.30;;;;;;5071113;28;20508;-90
2024/03/13 09:52:52;;;;;;;9.15;7.43;;;20.80;69.50;;;;;;5071038;28;20025;-90
2024/03/13 09:55:18;;;;;;;11.23;8.45;;;20.10;71.10;;;;;;5071813;28;20024;-90
2024/03/13 09:57:48;;;;;;;12.00;8.50;;;19.70;71.20;;;;;;5071391;28;20070;-90
2024/03/13 10:00:14;;;;;;;11.98;9.30;;;20.10;71.50;;;;;;5079127;28;20047;-91
2024/03/13 10:02:42;;;;;;;12.85;9.18;;;20.30;70.10;;;;;;5091363;28;20109;-90
2024/03/13 10:05:12;;;;;;;11.27;8.65;;;19.80;70.80;;;;;;5090797;28;20020;-89
2024/03/13 10:07:38;;;;;;;11.15;9.23;;;19.60;71.40;;;;;;5091040;28;20013;-90
2024/03/13 10:10:25;;;;;;;11.05;8.93;;;20.20;72.60;;;;;;5069452;28;20029;-89
2024/03/13 10:12:55;;;;;;;10.57;7.82;;;20.80;70.40;;;;;;5050783;28;20512;-89
2024/03/13 10:15:21;;;;;;;11.32;7.88;;;20.50;72.60;;;;;;5051057;28;20032;-89
2024/03/13 10:18:01;;;;;;;10.73;8.70;;;20.80;70.30;;;;;;5052205;28;20064;-89
2024/03/13 10:20:33;;;;;;;9.90;7.72;;;20.10;70.70;;;;;;5090977;28;20030;-89
2024/03/13 10:23:01;;;;;;;11.45;8.00;;;20.40;71.70;;;;;;5091352;28;20111;-89
2024/03/13 10:25:29;;;;;;;10.48;7.93;;;20.80;71.50;;;;;;5092500;28;20312;-89
2024/03/13 10:27:55;;;;;;;9.65;7.55;;;20.50;70.80;;;;;;5091900;28;20051;-89
2024/03/13 10:30:21;;;;;;;12.23;8.77;;;21.10;70.00;;;;;;5090940;28;20051;-89
2024/03/13 10:32:48;;;;;;;9.13;7.53;;;19.90;71.40;;;;;;5092359;28;20023;-89
2024/03/13 10:35:15;;;;;;;9.70;7.70;;;19.30;72.90;;;;;;5063575;28;20029;-89
2024/03/13 10:37:42;;;;;;;11.45;8.35;;;20.00;73.50;;;;;;5061633;28;20039;-89
2024/03/13 10:40:08;;;;;;;8.60;7.07;;;19.10;72.80;;;;;;5070087;28;20066;-89
2024/03/13 10:42:34;;;;;;;7.68;6.38;;;20.00;72.70;;;;;;5071394;28;20025;-89
2024/03/13 10:44:59;;;;;;;7.82;6.00;;;20.30;72.30;;;;;;5070295;28;20031;-89
2024/03/13 10:47:28;;;;;;;7.80;6.20;;;20.40;73.10;;;;;;5070555;28;20017;-89
2024/03/13 10:49:55;;;;;;;8.27;6.70;;;20.70;70.60;;;;;;5070019;28;20123;-89
2024/03/13 10:52:21;;;;;;;7.78;5.88;;;21.80;70.20;;;;;;5069980;28;20021;-90
2024/03/13 10:54:47;;;;;;;7.93;5.38;;;21.80;68.70;;;;;;5070522;28;20158;-90
2024/03/13 10:57:18;;;;;;;5.95;4.75;;;22.30;68.60;;;;;;5069984;28;20025;-90
2024/03/13 10:59:48;;;;;;;6.57;5.40;;;21.80;68.90;;;;;;5064201;28;20036;-89
2024/03/13 11:02:15;;;;;;;8.18;5.80;;;21.90;69.40;;;;;;5049747;28;20025;-89
2024/03/13 11:04:42;;;;;;;5.35;4.18;;;21.80;67.70;;;;;;5049603;28;20087;-89
2024/03/13 11:07:12;;;;;;;3.67;2.95;;;22.30;68.10;;;;;;5049919;28;20117;-89
2024/03/13 11:09:38;;;;;;;3.25;2.78;;;22.30;68.60;;;;;;5050063;28;20029;-89
2024/03/13 11:12:18;;;;;;;3.67;3.38;;;22.30;69.60;;;;;;5051504;28;20523;-89
2024/03/13 11:14:52;;;;;;;3.65;3.05;;;22.50;67.70;;;;;;5050125;28;20079;-90
2024/03/13 11:17:22;;;;;;;3.40;3.10;;;22.30;68.30;;;;;;5049795;28;20018;-89
2024/03/13 11:20:05;;;;;;;;;;;21.30;69.00;;;;;;5051609;28;20025;-89
2024/03/13 11:22:44;;;;;;;3.53;3.22;;;20.60;71.40;;;;;;5051245;28;20369;-89
2024/03/13 11:25:19;;;;;;;3.80;3.30;;;20.40;71.80;;;;;;5050864;28;20072;-89
2024/03/13 11:27:55;;;;;;;3.97;3.50;;;19.80;73.60;;;;;;5054015;28;20029;-89
2024/03/13 11:30:21;;;;;;;2.72;2.53;;;19.60;73.00;;;;;;5069967;28;20028;-89
2024/03/13 11:32:51;;;;;;;3.72;3.28;;;19.60;74.30;;;;;;5077483;28;20027;-89
2024/03/13 11:35:20;;;;;;;4.82;3.65;;;19.00;76.10;;;;;;5090241;28;20017;-89
2024/03/13 11:37:47;;;;;;;4.97;4.13;;;18.30;76.90;;;;;;5091965;28;20073;-88
2024/03/13 11:40:14;;;;;;;5.10;4.00;;;17.70;79.00;;;;;;5094994;28;20024;-88
2024/03/13 11:42:43;;;;;;;6.63;4.07;;;17.50;80.40;;;;;;5097089;28;20024;-89
2024/03/13 11:45:15;;;;;;;5.60;4.10;;;17.50;80.60;;;;;;5104532;28;20595;-88
2024/03/13 11:47:48;;;;;;;6.38;4.68;;;17.20;82.10;;;;;;5094263;28;20024;-89
2024/03/13 11:50:14;;;;;;;8.93;5.97;;;16.90;82.20;;;;;;5089388;28;20133;-88
2024/03/13 11:53:01;;;;;;;6.68;5.82;;;16.10;83.90;;;;;;5091778;28;20064;-88
2024/03/13 11:55:27;;;;;;;7.15;5.85;;;16.00;85.00;;;;;;5093695;28;20020;-84
2024/03/13 11:58:18;;;;;;;9.73;6.78;;;15.90;85.70;;;;;;5080147;28;20013;-84
2024/03/13 12:00:44;;;;;;;7.93;5.15;;;15.70;85.90;;;;;;5071789;28;20020;-84
2024/03/13 12:03:14;;;;;;;9.43;7.60;;;15.70;87.60;;;;;;5073532;28;20035;-84
2024/03/13 12:05:40;;;;;;;8.13;6.18;;;15.70;86.80;;;;;;5072112;28;20024;-84
2024/03/13 12:08:06;;;;;;;8.73;5.20;;;15.70;87.80;;;;;;5072259;28;20546;-82
2024/03/13 12:10:34;;;;;;;7.10;5.35;;;15.40;89.50;;;;;;5071595;28;20521;-83
2024/03/13 12:13:00;;;;;;;6.63;5.80;;;15.40;90.00;;;;;;5073378;28;20028;-83
2024/03/13 12:15:27;;;;;;;6.70;5.03;;;15.40;90.00;;;;;;5072916;28;20096;-83
2024/03/13 12:17:55;;;;;;;11.05;6.70;;;15.40;89.50;;;;;;5073200;28;20025;-84
2024/03/13 12:20:22;;;;;;;8.80;6.68;;;15.30;90.30;;;;;;5073239;28;20013;-83
2024/03/13 12:22:51;;;;;;;10.15;6.85;;;15.20;90.10;;;;;;5073226;28;20025;-83
2024/03/13 12:25:19;;;;;;;9.63;6.70;;;15.10;90.20;;;;;;5088900;28;20100;-83
2024/03/13 12:27:49;;;;;;;7.47;5.88;;;15.00;90.60;;;;;;5073562;28;20047;-84
2024/03/13 12:30:19;;;;;;;9.52;5.88;;;14.80;90.80;;;;;;5071346;28;20021;-83
2024/03/13 12:32:50;;;;;;;8.50;5.72;;;14.90;90.80;;;;;;5073541;28;20024;-84
2024/03/13 12:35:17;;;;;;;7.80;5.55;;;14.40;91.60;;;;;;5070672;28;20020;-84
2024/03/13 12:37:58;;;;;;;8.75;6.38;;;14.50;92.20;;;;;;5070309;28;20493;-84
2024/03/13 12:40:25;;;;;;;7.57;5.03;;;14.50;92.00;;;;;;5070103;28;20035;-84
2024/03/13 12:42:51;;;;;;;10.48;6.28;;;14.30;93.10;;;;;;5037261;28;20053;-80
2024/03/13 12:45:17;;;;;;;10.68;6.72;;;14.40;92.90;;;;;;5050199;28;20064;-81
2024/03/13 12:47:43;;;;;;;7.65;5.47;;;14.30;92.50;;;;;;5063893;28;20107;-83
2024/03/13 12:50:16;;;;;;;6.90;5.28;;;14.30;93.50;;;;;;5068876;28;20283;-83
2024/03/13 12:52:51;;;;;;;9.85;5.53;;;14.30;93.30;;;;;;5069788;28;20082;-83
2024/03/13 12:55:19;;;;;;;7.00;5.43;;;14.40;93.70;;;;;;5069632;28;20028;-80
2024/03/13 12:57:47;;;;;;;8.80;5.75;;;14.50;94.00;;;;;;5069789;28;20025;-81